createdAt,value
2022-12-01T00:01:44.951Z,17.70
2022-12-01T00:04:11.600Z,13.75
2022-12-01T00:06:38.248Z,13.07
2022-12-01T00:09:23.282Z,16.02
2022-12-01T00:11:49.708Z,16.13
2022-12-01T00:14:16.467Z,16.08
2022-12-01T00:16:44.655Z,19.30
2022-12-01T00:19:11.347Z,15.52
2022-12-01T00:21:37.776Z,15.60
2022-12-01T00:24:04.331Z,15.25
2022-12-01T00:26:30.793Z,16.92
2022-12-01T00:28:58.358Z,14.43
2022-12-01T00:31:25.767Z,15.93
2022-12-01T00:33:52.864Z,14.32
2022-12-01T00:36:19.313Z,17.10
2022-12-01T00:38:45.936Z,20.42
2022-12-01T00:41:12.430Z,21.65
2022-12-01T00:43:39.787Z,21.83
2022-12-01T00:46:06.909Z,25.95
2022-12-01T00:48:33.415Z,26.00
2022-12-01T00:50:59.970Z,23.60
2022-12-01T00:53:26.397Z,24.27
2022-12-01T00:55:55.738Z,23.70
2022-12-01T00:58:22.785Z,27.45
2022-12-01T01:00:49.784Z,24.00
2022-12-01T01:03:16.334Z,21.77
2022-12-01T01:05:42.988Z,19.77
2022-12-01T01:08:10.261Z,21.50
2022-12-01T01:10:40.496Z,18.67
2022-12-01T01:13:07.164Z,19.10
2022-12-01T01:15:33.811Z,17.80
2022-12-01T01:18:00.778Z,18.90
2022-12-01T01:20:27.441Z,19.73
2022-12-01T01:22:53.861Z,19.00
2022-12-01T01:25:20.309Z,17.13
2022-12-01T01:27:46.760Z,18.95
2022-12-01T01:30:13.467Z,20.23
2022-12-01T01:32:39.953Z,19.23
2022-12-01T01:35:06.698Z,19.00
2022-12-01T01:37:33.119Z,19.88
2022-12-01T01:39:59.583Z,19.83
2022-12-01T01:42:26.073Z,19.23
2022-12-01T01:44:52.555Z,18.33
2022-12-01T01:47:39.268Z,19.33
2022-12-01T01:50:10.103Z,20.48
2022-12-01T01:52:38.563Z,19.85
2022-12-01T01:55:05.384Z,19.15
2022-12-01T01:57:33.157Z,19.10
2022-12-01T02:00:03.605Z,20.08
2022-12-01T02:02:40.862Z,19.23
2022-12-01T02:05:11.750Z,20.75
2022-12-01T02:07:39.346Z,20.13
2022-12-01T02:10:07.089Z,18.92
2022-12-01T02:12:36.310Z,20.45
2022-12-01T02:15:11.828Z,18.95
2022-12-01T02:17:42.044Z,18.98
2022-12-01T02:20:08.549Z,21.13
2022-12-01T02:22:35.091Z,20.20
2022-12-01T02:25:15.948Z,19.55
2022-12-01T02:28:01.192Z,21.45
2022-12-01T02:30:36.599Z,21.88
2022-12-01T02:33:16.492Z,19.88
2022-12-01T02:36:05.193Z,20.38
2022-12-01T02:38:36.614Z,20.40
2022-12-01T02:41:21.983Z,21.17
2022-12-01T02:43:54.190Z,24.55
2022-12-01T02:46:23.653Z,21.00
2022-12-01T02:48:52.478Z,20.67
2022-12-01T02:51:18.927Z,20.25
2022-12-01T02:53:45.712Z,22.30
2022-12-01T02:56:14.676Z,24.23
2022-12-01T02:58:42.042Z,22.92
2022-12-01T03:01:27.338Z,22.38
2022-12-01T03:03:59.670Z,20.67
2022-12-01T03:06:45.092Z,21.60
2022-12-01T03:09:17.986Z,20.67
2022-12-01T03:12:10.559Z,20.60
2022-12-01T03:14:37.069Z,20.63
2022-12-01T03:17:15.230Z,22.27
2022-12-01T03:19:44.090Z,25.42
2022-12-01T03:22:12.469Z,20.95
2022-12-01T03:24:40.307Z,20.67
2022-12-01T03:27:09.788Z,20.02
2022-12-01T03:29:39.981Z,21.05
2022-12-01T03:32:12.949Z,20.90
2022-12-01T03:34:42.645Z,21.45
2022-12-01T03:37:22.379Z,22.52
2022-12-01T03:39:50.013Z,22.33
2022-12-01T03:42:20.259Z,22.10
2022-12-01T03:44:49.664Z,22.20
2022-12-01T03:47:24.383Z,22.27
2022-12-01T03:49:51.848Z,21.98
2022-12-01T03:52:18.286Z,21.73
2022-12-01T03:54:59.747Z,23.33
2022-12-01T03:57:40.028Z,20.15
2022-12-01T04:00:08.133Z,21.02
2022-12-01T04:02:38.906Z,21.67
2022-12-01T04:05:06.075Z,22.30
2022-12-01T04:07:32.619Z,21.75
2022-12-01T04:09:59.083Z,21.20
2022-12-01T04:12:32.877Z,23.17
2022-12-01T04:15:00.604Z,21.95
2022-12-01T04:17:27.520Z,22.67
2022-12-01T04:19:53.985Z,20.25
2022-12-01T04:22:20.742Z,21.17
2022-12-01T04:24:47.247Z,22.15
2022-12-01T04:27:13.892Z,20.83
2022-12-01T04:29:40.456Z,21.58
2022-12-01T04:32:07.118Z,20.25
2022-12-01T04:34:33.649Z,20.98
2022-12-01T04:37:00.240Z,19.60
2022-12-01T04:39:26.729Z,21.65
2022-12-01T04:41:53.190Z,19.50
2022-12-01T04:44:19.741Z,21.85
2022-12-01T04:46:46.316Z,19.70
2022-12-01T04:49:12.890Z,19.30
2022-12-01T04:51:39.365Z,17.02
2022-12-01T04:54:06.376Z,19.92
2022-12-01T04:56:33.615Z,19.40
2022-12-01T04:59:00.404Z,17.55
2022-12-01T05:01:27.087Z,18.58
2022-12-01T05:03:53.652Z,19.00
2022-12-01T05:06:21.773Z,19.70
2022-12-01T05:08:48.386Z,17.30
2022-12-01T05:11:15.613Z,18.70
2022-12-01T05:13:43.345Z,19.27
2022-12-01T05:16:09.860Z,18.65
2022-12-01T05:18:36.472Z,17.10
2022-12-01T05:21:04.107Z,18.52
2022-12-01T05:23:31.758Z,17.75
2022-12-01T05:25:58.720Z,18.98
2022-12-01T05:28:26.410Z,20.60
2022-12-01T05:30:54.178Z,18.77
2022-12-01T05:33:21.061Z,20.40
2022-12-01T05:35:48.470Z,19.50
2022-12-01T05:38:15.641Z,19.77
2022-12-01T05:40:42.060Z,19.95
2022-12-01T05:43:08.635Z,21.67
2022-12-01T05:45:35.164Z,17.85
2022-12-01T05:48:02.031Z,18.80
2022-12-01T05:50:29.712Z,18.73
2022-12-01T05:52:56.248Z,17.45
2022-12-01T05:55:22.838Z,18.10
2022-12-01T05:57:49.369Z,15.32
2022-12-01T06:00:16.364Z,18.02
2022-12-01T06:02:43.030Z,17.83
2022-12-01T06:05:09.617Z,17.38
2022-12-01T06:07:36.102Z,18.13
2022-12-01T06:10:02.716Z,18.95
2022-12-01T06:12:29.212Z,18.65
2022-12-01T06:14:55.736Z,19.48
2022-12-01T06:17:22.187Z,18.20
2022-12-01T06:19:48.860Z,19.48
2022-12-01T06:22:15.521Z,18.30
2022-12-01T06:24:41.953Z,18.15
2022-12-01T06:27:08.460Z,17.30
2022-12-01T06:29:39.040Z,17.08
2022-12-01T06:34:34.694Z,16.95
2022-12-01T06:37:01.268Z,16.48
2022-12-01T06:39:27.676Z,18.98
2022-12-01T06:41:54.216Z,18.92
2022-12-01T06:44:20.690Z,19.17
2022-12-01T06:46:47.237Z,19.83
2022-12-01T06:49:13.701Z,19.35
2022-12-01T06:51:40.226Z,18.27
2022-12-01T06:54:06.735Z,17.70
2022-12-01T06:56:33.192Z,16.40
2022-12-01T06:59:00.039Z,18.88
2022-12-01T07:01:27.003Z,20.40
2022-12-01T07:03:53.597Z,19.75
2022-12-01T07:06:20.152Z,18.98
2022-12-01T07:08:46.644Z,19.45
2022-12-01T07:11:14.664Z,20.73
2022-12-01T07:13:41.935Z,21.13
2022-12-01T07:16:09.586Z,24.65
2022-12-01T07:18:37.049Z,18.55
2022-12-01T07:21:04.736Z,19.38
2022-12-01T07:23:32.297Z,18.75
2022-12-01T07:26:10.364Z,17.98
2022-12-01T07:28:36.849Z,16.40
2022-12-01T07:31:13.847Z,19.33
2022-12-01T07:33:40.819Z,20.05
2022-12-01T07:36:07.798Z,18.05
2022-12-01T07:38:35.093Z,20.67
2022-12-01T07:41:05.784Z,19.83
2022-12-01T07:43:32.759Z,21.23
2022-12-01T07:46:18.742Z,19.05
2022-12-01T07:48:48.938Z,19.33
2022-12-01T07:51:17.070Z,20.10
2022-12-01T07:53:44.392Z,21.48
2022-12-01T07:56:10.951Z,21.38
2022-12-01T07:58:37.595Z,23.77
2022-12-01T08:01:12.432Z,20.83
2022-12-01T08:03:39.414Z,21.23
2022-12-01T08:06:06.397Z,20.77
2022-12-01T08:08:35.181Z,21.38
2022-12-01T08:11:02.717Z,28.13
2022-12-01T08:13:29.512Z,38.70
2022-12-01T08:15:55.983Z,33.03
2022-12-01T08:18:23.099Z,40.25
2022-12-01T08:20:56.017Z,28.88
2022-12-01T08:23:22.504Z,89.20
2022-12-01T08:25:48.916Z,41.17
2022-12-01T08:28:15.465Z,20.70
2022-12-01T08:30:41.972Z,24.88
2022-12-01T08:33:08.444Z,22.58
2022-12-01T08:35:37.630Z,23.90
2022-12-01T08:38:04.448Z,22.52
2022-12-01T08:40:31.011Z,22.17
2022-12-01T08:42:57.473Z,20.30
2022-12-01T08:45:23.910Z,21.70
2022-12-01T08:47:50.339Z,22.52
2022-12-01T08:50:17.321Z,20.90
2022-12-01T08:52:43.807Z,22.40
2022-12-01T08:55:10.228Z,21.63
2022-12-01T08:57:36.716Z,21.30
2022-12-01T09:00:03.905Z,19.48
2022-12-01T09:02:30.542Z,20.63
2022-12-01T09:04:57.095Z,19.73
2022-12-01T09:07:26.544Z,20.17
2022-12-01T09:09:53.536Z,20.23
2022-12-01T09:12:21.129Z,22.52
2022-12-01T09:14:49.823Z,19.70
2022-12-01T09:17:17.344Z,20.67
2022-12-01T09:19:44.315Z,21.77
2022-12-01T09:22:11.802Z,21.27
2022-12-01T09:24:38.392Z,20.10
2022-12-01T09:27:05.154Z,21.38
2022-12-01T09:29:32.135Z,19.98
2022-12-01T09:31:59.255Z,20.20
2022-12-01T09:34:26.057Z,19.17
2022-12-01T09:36:54.719Z,19.67
2022-12-01T09:39:21.231Z,19.80
2022-12-01T09:41:49.610Z,19.02
2022-12-01T09:44:25.340Z,17.88
2022-12-01T09:47:06.564Z,19.45
2022-12-01T09:49:40.646Z,20.25
2022-12-01T09:52:11.176Z,20.48
2022-12-01T09:54:37.687Z,22.35
2022-12-01T09:57:04.185Z,21.83
2022-12-01T09:59:37.700Z,20.45
2022-12-01T10:04:42.371Z,18.92
2022-12-01T10:07:21.079Z,20.75
2022-12-01T10:09:51.902Z,19.30
2022-12-01T10:12:20.275Z,21.35
2022-12-01T10:14:47.498Z,21.33
2022-12-01T10:17:23.089Z,21.02
2022-12-01T10:19:52.516Z,21.75
2022-12-01T10:22:31.254Z,24.05
2022-12-01T10:25:16.275Z,22.60
2022-12-01T10:28:01.659Z,26.88
2022-12-01T10:30:28.151Z,24.42
2022-12-01T10:32:54.567Z,23.58
2022-12-01T10:35:22.223Z,24.48
2022-12-01T10:37:51.786Z,25.05
2022-12-01T10:40:18.409Z,26.40
2022-12-01T10:42:46.434Z,24.52
2022-12-01T10:45:26.359Z,24.90
2022-12-01T10:48:13.138Z,23.13
2022-12-01T10:50:39.877Z,24.08
2022-12-01T10:53:06.607Z,27.30
2022-12-01T10:55:40.821Z,21.20
2022-12-01T10:58:17.122Z,25.33
2022-12-01T11:01:02.582Z,24.92
2022-12-01T11:03:31.287Z,25.15
2022-12-01T11:05:58.978Z,24.13
2022-12-01T11:08:31.712Z,26.92
2022-12-01T11:10:58.342Z,25.83
2022-12-01T11:13:28.567Z,25.10
2022-12-01T11:15:59.658Z,25.13
2022-12-01T11:18:31.898Z,24.75
2022-12-01T11:21:26.512Z,23.95
2022-12-01T11:23:53.895Z,23.98
2022-12-01T11:26:28.150Z,26.23
2022-12-01T11:28:56.097Z,24.58
2022-12-01T11:31:25.938Z,22.98
2022-12-01T11:33:53.850Z,22.25
2022-12-01T11:36:30.459Z,23.25
2022-12-01T11:38:58.595Z,25.50
2022-12-01T11:41:27.937Z,23.15
2022-12-01T11:44:01.468Z,24.73
2022-12-01T11:46:30.384Z,25.90
2022-12-01T11:48:58.142Z,22.73
2022-12-01T11:51:28.559Z,21.95
2022-12-01T11:54:27.371Z,22.33
2022-12-01T11:57:25.372Z,24.60
2022-12-01T11:59:40.636Z,25.75
2022-12-01T12:02:24.016Z,22.58
2022-12-01T12:05:06.409Z,22.73
2022-12-01T12:07:40.005Z,20.80
2022-12-01T12:10:25.004Z,21.45
2022-12-01T12:12:54.459Z,22.90
2022-12-01T12:15:36.801Z,22.13
2022-12-01T12:18:21.899Z,22.55
2022-12-01T12:21:02.985Z,29.15
2022-12-01T12:23:42.419Z,22.73
2022-12-01T12:26:24.379Z,22.77
2022-12-01T12:29:14.154Z,20.27
2022-12-01T12:32:02.457Z,20.20
2022-12-01T12:34:31.949Z,20.98
2022-12-01T12:37:10.782Z,20.20
2022-12-01T12:39:49.713Z,20.05
2022-12-01T12:42:35.163Z,22.13
2022-12-01T12:45:01.627Z,26.08
2022-12-01T12:47:36.926Z,22.13
2022-12-01T12:50:09.177Z,19.77
2022-12-01T12:52:37.096Z,16.23
2022-12-01T12:55:03.556Z,14.52
2022-12-01T12:57:30.025Z,13.77
2022-12-01T13:00:15.568Z,12.98
2022-12-01T13:02:47.971Z,15.25
2022-12-01T13:05:24.998Z,17.05
2022-12-01T13:07:55.304Z,15.98
2022-12-01T13:10:25.220Z,19.05
2022-12-01T13:12:56.190Z,18.08
2022-12-01T13:15:23.787Z,15.40
2022-12-01T13:18:09.124Z,18.83
2022-12-01T13:20:37.659Z,17.65
2022-12-01T13:23:04.467Z,14.93
2022-12-01T13:25:34.339Z,17.83
2022-12-01T13:28:02.441Z,15.20
2022-12-01T13:30:28.995Z,14.85
2022-12-01T13:33:00.242Z,15.38
2022-12-01T13:35:34.987Z,16.58
2022-12-01T13:38:20.275Z,16.45
2022-12-01T13:40:47.069Z,17.65
2022-12-01T13:43:18.400Z,14.68
2022-12-01T13:45:45.235Z,18.48
2022-12-01T13:48:27.081Z,18.25
2022-12-01T13:50:53.604Z,17.50
2022-12-01T13:53:20.270Z,16.23
2022-12-01T13:56:00.807Z,19.80
2022-12-01T13:58:47.560Z,16.35
2022-12-01T14:01:20.082Z,13.35
2022-12-01T14:04:09.864Z,14.68
2022-12-01T14:06:39.577Z,16.90
2022-12-01T14:09:08.060Z,17.70
2022-12-01T14:11:34.852Z,14.80
2022-12-01T14:14:13.063Z,18.17
2022-12-01T14:16:50.284Z,17.23
2022-12-01T14:19:26.018Z,16.27
2022-12-01T14:21:52.611Z,18.52
2022-12-01T14:24:51.579Z,21.08
2022-12-01T14:27:32.315Z,15.75
2022-12-01T14:30:18.853Z,17.15
2022-12-01T14:32:45.372Z,15.18
2022-12-01T14:35:13.810Z,15.75
2022-12-01T14:37:42.447Z,16.60
2022-12-01T14:40:13.056Z,17.95
2022-12-01T14:42:59.451Z,18.73
2022-12-01T14:45:49.097Z,17.85
2022-12-01T14:48:18.504Z,15.10
2022-12-01T14:50:49.382Z,17.95
2022-12-01T14:53:19.046Z,18.98
2022-12-01T14:56:05.758Z,17.83
2022-12-01T14:58:32.508Z,17.92
2022-12-01T15:01:10.191Z,15.05
2022-12-01T15:03:42.513Z,18.45
2022-12-01T15:06:09.295Z,15.90
2022-12-01T15:08:49.242Z,22.13
2022-12-01T15:11:25.952Z,20.48
2022-12-01T15:13:57.105Z,19.48
2022-12-01T15:16:24.832Z,17.70
2022-12-01T15:18:51.580Z,19.15
2022-12-01T15:21:28.325Z,19.48
2022-12-01T15:23:54.823Z,16.13
2022-12-01T15:26:22.347Z,19.92
2022-12-01T15:28:48.849Z,19.20
2022-12-01T15:31:15.452Z,18.90
2022-12-01T15:33:48.700Z,19.08
2022-12-01T15:36:16.433Z,17.92
2022-12-01T15:38:43.933Z,16.45
2022-12-01T15:41:33.001Z,17.25
2022-12-01T15:44:03.447Z,19.13
2022-12-01T15:46:31.023Z,21.38
2022-12-01T15:49:30.116Z,18.25
2022-12-01T15:52:07.417Z,21.48
2022-12-01T15:54:35.879Z,21.63
2022-12-01T15:57:03.479Z,23.33
2022-12-01T15:59:38.967Z,25.77
2022-12-01T16:02:07.000Z,25.13
2022-12-01T16:04:35.443Z,24.70
2022-12-01T16:07:04.541Z,22.08
2022-12-01T16:09:33.572Z,24.52
2022-12-01T16:12:04.104Z,23.40
2022-12-01T16:14:32.023Z,22.80
2022-12-01T16:16:58.720Z,26.65
2022-12-01T16:19:31.535Z,25.10
2022-12-01T16:22:01.148Z,27.17
2022-12-01T16:24:32.194Z,28.65
2022-12-01T16:27:04.384Z,25.45
2022-12-01T16:29:33.904Z,25.48
2022-12-01T16:32:24.683Z,28.10
2022-12-01T16:34:52.604Z,30.05
2022-12-01T16:37:19.650Z,28.92
2022-12-01T16:39:46.148Z,27.38
2022-12-01T16:42:14.243Z,25.70
2022-12-01T16:44:41.395Z,26.63
2022-12-01T16:47:16.203Z,24.85
2022-12-01T16:49:42.771Z,26.80
2022-12-01T16:52:36.617Z,24.73
2022-12-01T16:54:56.618Z,24.00
2022-12-01T16:57:23.192Z,23.13
2022-12-01T16:59:49.637Z,28.88
2022-12-01T17:02:16.253Z,27.52
2022-12-01T17:04:42.790Z,23.20
2022-12-01T17:07:09.220Z,25.23
2022-12-01T17:09:35.870Z,26.10
2022-12-01T17:12:02.296Z,22.00
2022-12-01T17:14:29.265Z,24.48
2022-12-01T17:16:58.403Z,26.73
2022-12-01T17:19:24.866Z,22.83
2022-12-01T17:21:51.281Z,25.77
2022-12-01T17:24:19.236Z,27.38
2022-12-01T17:26:46.047Z,26.23
2022-12-01T17:29:12.600Z,26.13
2022-12-01T17:31:39.115Z,26.08
2022-12-01T17:34:05.693Z,23.25
2022-12-01T17:36:32.163Z,25.20
2022-12-01T17:38:58.836Z,25.45
2022-12-01T17:41:32.066Z,25.95
2022-12-01T17:43:58.677Z,29.73
2022-12-01T17:46:25.591Z,29.08
2022-12-01T17:48:52.086Z,25.92
2022-12-01T17:51:18.529Z,23.98
2022-12-01T17:53:45.024Z,29.33
2022-12-01T17:56:12.529Z,26.25
2022-12-01T17:58:39.522Z,26.50
2022-12-01T18:01:06.316Z,25.40
2022-12-01T18:03:32.813Z,27.98
2022-12-01T18:06:00.519Z,25.17
2022-12-01T18:08:28.177Z,28.45
2022-12-01T18:10:54.769Z,25.33
2022-12-01T18:13:21.924Z,26.27
2022-12-01T18:15:48.609Z,26.80
2022-12-01T18:18:15.155Z,26.60
2022-12-01T18:20:42.520Z,20.58
2022-12-01T18:23:09.183Z,27.58
2022-12-01T18:25:36.536Z,24.98
2022-12-01T18:28:03.100Z,25.38
2022-12-01T18:30:29.947Z,27.42
2022-12-01T18:32:58.216Z,28.40
2022-12-01T18:35:28.829Z,30.40
2022-12-01T18:40:25.988Z,24.15
2022-12-01T18:42:52.504Z,23.63
2022-12-01T18:45:21.509Z,26.02
2022-12-01T18:47:48.119Z,25.67
2022-12-01T18:50:14.930Z,23.55
2022-12-01T18:52:41.409Z,21.60
2022-12-01T18:55:08.170Z,22.90
2022-12-01T18:57:34.692Z,24.38
2022-12-01T19:00:01.334Z,24.67
2022-12-01T19:02:27.966Z,21.73
2022-12-01T19:04:54.497Z,22.45
2022-12-01T19:07:25.212Z,23.50
2022-12-01T19:09:55.910Z,23.35
2022-12-01T19:12:24.434Z,23.35
2022-12-01T19:14:52.998Z,22.63
2022-12-01T19:17:19.791Z,23.88
2022-12-01T19:19:47.348Z,26.00
2022-12-01T19:22:14.004Z,25.25
2022-12-01T19:24:40.601Z,20.90
2022-12-01T19:27:07.151Z,23.25
2022-12-01T19:29:33.710Z,24.58
2022-12-01T19:32:00.585Z,23.73
2022-12-01T19:34:27.415Z,25.13
2022-12-01T19:36:54.404Z,24.30
2022-12-01T19:39:20.900Z,22.85
2022-12-01T19:41:47.433Z,24.10
2022-12-01T19:44:14.882Z,22.65
2022-12-01T19:46:42.330Z,20.75
2022-12-01T19:49:09.634Z,20.73
2022-12-01T19:51:37.561Z,21.75
2022-12-01T19:54:08.135Z,22.55
2022-12-01T19:56:34.615Z,22.42
2022-12-01T19:59:01.106Z,20.70
2022-12-01T20:01:27.616Z,20.35
2022-12-01T20:03:54.705Z,21.13
2022-12-01T20:06:25.150Z,20.73
2022-12-01T20:08:52.092Z,19.02
2022-12-01T20:11:18.549Z,19.08
2022-12-01T20:13:45.750Z,22.02
2022-12-01T20:16:16.457Z,20.73
2022-12-01T20:18:43.249Z,19.88
2022-12-01T20:21:26.434Z,21.40
2022-12-01T20:23:58.140Z,19.40
2022-12-01T20:26:30.253Z,22.05
2022-12-01T20:28:59.305Z,23.13
2022-12-01T20:31:26.907Z,20.83
2022-12-01T20:33:54.401Z,20.45
2022-12-01T20:36:21.219Z,21.08
2022-12-01T20:38:47.737Z,22.00
2022-12-01T20:41:14.219Z,22.27
2022-12-01T20:43:40.836Z,19.52
2022-12-01T20:46:07.417Z,21.73
2022-12-01T20:48:34.495Z,21.77
2022-12-01T20:51:01.741Z,22.88
2022-12-01T20:53:28.327Z,21.90
2022-12-01T20:55:55.590Z,22.15
2022-12-01T20:58:22.232Z,21.55
2022-12-01T21:00:48.852Z,21.83
2022-12-01T21:03:15.344Z,20.83
2022-12-01T21:05:42.576Z,20.75
2022-12-01T21:08:10.224Z,21.77
2022-12-01T21:10:37.905Z,21.45
2022-12-01T21:13:42.437Z,19.55
2022-12-01T21:16:13.868Z,21.80
2022-12-01T21:19:00.449Z,21.95
2022-12-01T21:21:31.022Z,22.27
2022-12-01T21:24:13.629Z,20.60
2022-12-01T21:26:42.066Z,20.55
2022-12-01T21:29:28.498Z,21.50
2022-12-01T21:31:56.370Z,19.05
2022-12-01T21:34:24.016Z,23.23
2022-12-01T21:36:51.676Z,21.50
2022-12-01T21:39:20.765Z,22.92
2022-12-01T21:41:51.727Z,20.38
2022-12-01T21:44:19.514Z,21.13
2022-12-01T21:46:46.334Z,19.80
2022-12-01T21:49:13.790Z,21.80
2022-12-01T21:51:40.255Z,20.95
2022-12-01T21:54:10.272Z,21.00
2022-12-01T21:56:36.747Z,20.85
2022-12-01T21:59:10.948Z,18.13
2022-12-01T22:01:37.466Z,18.23
2022-12-01T22:04:09.124Z,18.88
2022-12-01T22:06:37.778Z,17.80
2022-12-01T22:09:17.824Z,20.17
2022-12-01T22:11:45.020Z,19.92
2022-12-01T22:14:15.393Z,16.98
2022-12-01T22:16:43.121Z,17.67
2022-12-01T22:19:15.453Z,17.75
2022-12-01T22:21:46.731Z,19.08
2022-12-01T22:24:16.387Z,17.92
2022-12-01T22:26:45.433Z,16.10
2022-12-01T22:29:17.840Z,18.35
2022-12-01T22:31:44.278Z,17.40
2022-12-01T22:34:12.905Z,17.75
2022-12-01T22:36:39.702Z,17.58
2022-12-01T22:39:44.549Z,16.30
2022-12-01T22:42:14.863Z,18.70
2022-12-01T22:44:44.901Z,18.73
2022-12-01T22:47:11.952Z,19.35
2022-12-01T22:49:38.381Z,16.90
2022-12-01T22:52:13.808Z,19.77
2022-12-01T22:54:43.655Z,18.30
2022-12-01T22:57:13.038Z,18.25
2022-12-01T22:59:41.406Z,17.20
2022-12-01T23:02:26.413Z,18.83
2022-12-01T23:04:58.705Z,18.00
2022-12-01T23:07:25.130Z,19.05
2022-12-01T23:09:51.845Z,19.23
2022-12-01T23:12:18.246Z,17.92
2022-12-01T23:14:47.547Z,19.65
2022-12-01T23:17:16.497Z,18.48
2022-12-01T23:19:42.963Z,20.90
2022-12-01T23:22:09.792Z,17.75
2022-12-01T23:24:36.396Z,17.42
2022-12-01T23:27:03.163Z,16.50
2022-12-01T23:29:30.184Z,15.63
2022-12-01T23:31:56.680Z,17.77
2022-12-01T23:34:23.113Z,17.70
2022-12-01T23:36:50.378Z,14.98
2022-12-01T23:39:17.755Z,19.23
2022-12-01T23:41:45.306Z,17.73
2022-12-01T23:44:22.832Z,16.15
2022-12-01T23:46:55.333Z,16.73
2022-12-01T23:49:29.896Z,17.77
2022-12-01T23:51:57.397Z,15.38
2022-12-01T23:54:29.052Z,16.48
2022-12-01T23:56:56.617Z,17.77
2022-12-01T23:59:23.180Z,19.45
